Macgregor, Canada
Current Conditions -  °F | °C
As of 5:00 AM on Saturday 25 Oct 2014 (Local Time) from CYBR Reporting Station
Clear Clear  
Wind Chill: 27°   Ceiling: Unl
Heat Index: 36°   Visibility: 15mi
Dew Point: 28°   Wind: 14mph
Humidity: 75%   Direction: 270°W
Pressure: 29.98"   Gusts: NA
Location:  49.97°N, 98.77°W
Report Text: CYBR 251000Z 27012KT 15SM SKC 02/M02 A2998 RMK SLP166
Loading
Personal Weather Stations






























Interactive Weather Map
Tropical Storm Tracking
New forecast layout! Learn more

10-Day Weather Forecast

Advertisements
Track Severe Weather on mobile